sensor_id;sensor_type;location;lat;lon;timestamp;P1;durP1;ratioP1;P2;durP2;ratioP2
19883;SDS011;10104;50.732;10.174;2023-05-07T00:00:19;7.32;;;6.63;;
19883;SDS011;10104;50.732;10.174;2023-05-07T00:02:41;7.82;;;7.05;;
19883;SDS011;10104;50.732;10.174;2023-05-07T00:05:03;8.88;;;7.45;;
19883;SDS011;10104;50.732;10.174;2023-05-07T00:07:25;9.23;;;8.25;;
19883;SDS011;10104;50.732;10.174;2023-05-07T00:09:46;9.75;;;8.00;;
19883;SDS011;10104;50.732;10.174;2023-05-07T00:12:08;11.60;;;8.38;;
19883;SDS011;10104;50.732;10.174;2023-05-07T00:14:30;10.13;;;8.63;;
19883;SDS011;10104;50.732;10.174;2023-05-07T00:16:52;9.48;;;8.48;;
19883;SDS011;10104;50.732;10.174;2023-05-07T00:19:13;11.13;;;9.60;;
19883;SDS011;10104;50.732;10.174;2023-05-07T00:21:35;9.30;;;8.40;;
19883;SDS011;10104;50.732;10.174;2023-05-07T00:23:57;11.60;;;8.75;;
19883;SDS011;10104;50.732;10.174;2023-05-07T00:26:18;7.05;;;6.35;;
19883;SDS011;10104;50.732;10.174;2023-05-07T00:28:40;6.28;;;5.78;;
19883;SDS011;10104;50.732;10.174;2023-05-07T00:31:01;7.93;;;6.30;;
19883;SDS011;10104;50.732;10.174;2023-05-07T00:33:23;5.30;;;4.80;;
19883;SDS011;10104;50.732;10.174;2023-05-07T00:35:44;5.75;;;5.15;;
19883;SDS011;10104;50.732;10.174;2023-05-07T00:38:06;5.50;;;5.00;;
19883;SDS011;10104;50.732;10.174;2023-05-07T00:40:28;6.65;;;5.20;;
19883;SDS011;10104;50.732;10.174;2023-05-07T00:42:49;9.17;;;5.57;;
19883;SDS011;10104;50.732;10.174;2023-05-07T00:45:11;6.70;;;6.07;;
19883;SDS011;10104;50.732;10.174;2023-05-07T00:47:33;6.97;;;6.00;;
19883;SDS011;10104;50.732;10.174;2023-05-07T00:49:54;8.63;;;5.18;;
19883;SDS011;10104;50.732;10.174;2023-05-07T00:52:16;8.43;;;6.15;;
19883;SDS011;10104;50.732;10.174;2023-05-07T00:54:39;7.78;;;6.82;;
19883;SDS011;10104;50.732;10.174;2023-05-07T00:57:02;10.70;;;9.67;;
19883;SDS011;10104;50.732;10.174;2023-05-07T00:59:24;11.00;;;9.95;;
19883;SDS011;10104;50.732;10.174;2023-05-07T01:01:46;11.07;;;9.98;;
19883;SDS011;10104;50.732;10.174;2023-05-07T01:04:08;12.43;;;11.13;;
19883;SDS011;10104;50.732;10.174;2023-05-07T01:06:30;13.13;;;11.57;;
19883;SDS011;10104;50.732;10.174;2023-05-07T01:08:53;12.65;;;11.40;;
19883;SDS011;10104;50.732;10.174;2023-05-07T01:11:17;12.18;;;10.82;;
19883;SDS011;10104;50.732;10.174;2023-05-07T01:13:41;13.63;;;10.17;;
19883;SDS011;10104;50.732;10.174;2023-05-07T01:16:03;12.70;;;10.70;;
19883;SDS011;10104;50.732;10.174;2023-05-07T01:18:25;12.18;;;10.90;;
19883;SDS011;10104;50.732;10.174;2023-05-07T01:20:47;13.55;;;12.15;;
19883;SDS011;10104;50.732;10.174;2023-05-07T01:23:09;13.53;;;12.23;;
19883;SDS011;10104;50.732;10.174;2023-05-07T01:25:32;14.77;;;13.37;;
19883;SDS011;10104;50.732;10.174;2023-05-07T01:27:54;13.88;;;12.50;;
19883;SDS011;10104;50.732;10.174;2023-05-07T01:30:16;14.05;;;12.73;;
19883;SDS011;10104;50.732;10.174;2023-05-07T01:35:15;13.40;;;11.80;;
19883;SDS011;10104;50.732;10.174;2023-05-07T01:37:41;12.77;;;11.47;;
19883;SDS011;10104;50.732;10.174;2023-05-07T01:40:03;13.13;;;11.82;;
19883;SDS011;10104;50.732;10.174;2023-05-07T01:42:25;12.93;;;11.60;;
19883;SDS011;10104;50.732;10.174;2023-05-07T01:44:47;12.50;;;11.38;;
19883;SDS011;10104;50.732;10.174;2023-05-07T01:47:09;14.07;;;11.83;;
19883;SDS011;10104;50.732;10.174;2023-05-07T01:49:31;13.53;;;12.13;;
19883;SDS011;10104;50.732;10.174;2023-05-07T01:51:53;14.15;;;12.68;;
19883;SDS011;10104;50.732;10.174;2023-05-07T01:54:14;16.27;;;14.50;;
19883;SDS011;10104;50.732;10.174;2023-05-07T01:56:36;15.77;;;14.17;;
19883;SDS011;10104;50.732;10.174;2023-05-07T01:58:58;15.70;;;14.20;;
19883;SDS011;10104;50.732;10.174;2023-05-07T02:01:19;15.77;;;14.27;;
19883;SDS011;10104;50.732;10.174;2023-05-07T02:03:41;16.15;;;14.48;;
19883;SDS011;10104;50.732;10.174;2023-05-07T02:06:03;15.90;;;14.37;;
19883;SDS011;10104;50.732;10.174;2023-05-07T02:08:25;16.02;;;14.35;;
19883;SDS011;10104;50.732;10.174;2023-05-07T02:10:46;18.87;;;14.53;;
19883;SDS011;10104;50.732;10.174;2023-05-07T02:13:08;16.23;;;14.63;;
19883;SDS011;10104;50.732;10.174;2023-05-07T02:15:29;15.83;;;14.33;;
19883;SDS011;10104;50.732;10.174;2023-05-07T02:17:58;15.90;;;14.40;;
19883;SDS011;10104;50.732;10.174;2023-05-07T02:20:21;16.63;;;15.03;;
19883;SDS011;10104;50.732;10.174;2023-05-07T02:22:42;17.20;;;15.50;;
19883;SDS011;10104;50.732;10.174;2023-05-07T02:25:04;15.17;;;13.67;;
19883;SDS011;10104;50.732;10.174;2023-05-07T02:27:25;14.37;;;12.87;;
19883;SDS011;10104;50.732;10.174;2023-05-07T02:29:47;15.23;;;13.73;;
19883;SDS011;10104;50.732;10.174;2023-05-07T02:32:08;14.17;;;12.73;;
19883;SDS011;10104;50.732;10.174;2023-05-07T02:34:30;15.83;;;13.33;;
19883;SDS011;10104;50.732;10.174;2023-05-07T02:36:51;14.00;;;12.57;;
19883;SDS011;10104;50.732;10.174;2023-05-07T02:39:13;13.27;;;11.97;;
19883;SDS011;10104;50.732;10.174;2023-05-07T02:41:35;14.93;;;13.40;;
19883;SDS011;10104;50.732;10.174;2023-05-07T02:43:56;13.53;;;12.23;;
19883;SDS011;10104;50.732;10.174;2023-05-07T02:46:18;14.70;;;13.20;;
19883;SDS011;10104;50.732;10.174;2023-05-07T02:48:39;14.27;;;12.87;;
19883;SDS011;10104;50.732;10.174;2023-05-07T02:51:01;17.00;;;13.80;;
19883;SDS011;10104;50.732;10.174;2023-05-07T02:53:23;16.63;;;13.53;;
19883;SDS011;10104;50.732;10.174;2023-05-07T02:55:47;16.87;;;15.07;;
19883;SDS011;10104;50.732;10.174;2023-05-07T02:58:08;16.73;;;15.03;;
19883;SDS011;10104;50.732;10.174;2023-05-07T03:00:30;16.00;;;14.30;;
19883;SDS011;10104;50.732;10.174;2023-05-07T03:02:51;15.97;;;14.47;;
19883;SDS011;10104;50.732;10.174;2023-05-07T03:05:13;15.10;;;13.63;;
19883;SDS011;10104;50.732;10.174;2023-05-07T03:07:35;15.23;;;13.83;;
19883;SDS011;10104;50.732;10.174;2023-05-07T03:09:57;12.93;;;11.70;;
19883;SDS011;10104;50.732;10.174;2023-05-07T03:12:19;14.67;;;13.27;;
19883;SDS011;10104;50.732;10.174;2023-05-07T03:14:40;14.20;;;12.80;;
19883;SDS011;10104;50.732;10.174;2023-05-07T03:17:02;14.40;;;13.00;;
19883;SDS011;10104;50.732;10.174;2023-05-07T03:19:23;14.43;;;12.93;;
19883;SDS011;10104;50.732;10.174;2023-05-07T03:21:45;13.83;;;12.53;;
19883;SDS011;10104;50.732;10.174;2023-05-07T03:24:06;15.53;;;12.70;;
19883;SDS011;10104;50.732;10.174;2023-05-07T03:26:28;13.47;;;12.13;;
19883;SDS011;10104;50.732;10.174;2023-05-07T03:28:49;14.30;;;12.90;;
19883;SDS011;10104;50.732;10.174;2023-05-07T03:31:11;13.70;;;12.37;;
19883;SDS011;10104;50.732;10.174;2023-05-07T03:33:33;13.57;;;12.23;;
19883;SDS011;10104;50.732;10.174;2023-05-07T03:35:56;13.90;;;12.60;;
19883;SDS011;10104;50.732;10.174;2023-05-07T03:38:17;12.67;;;11.37;;
19883;SDS011;10104;50.732;10.174;2023-05-07T03:40:39;15.27;;;13.67;;
19883;SDS011;10104;50.732;10.174;2023-05-07T03:43:00;14.00;;;12.70;;
19883;SDS011;10104;50.732;10.174;2023-05-07T03:45:22;15.47;;;13.87;;
19883;SDS011;10104;50.732;10.174;2023-05-07T03:47:43;14.73;;;13.23;;
19883;SDS011;10104;50.732;10.174;2023-05-07T03:50:05;15.10;;;13.60;;
19883;SDS011;10104;50.732;10.174;2023-05-07T03:52:27;16.20;;;14.50;;
19883;SDS011;10104;50.732;10.174;2023-05-07T03:54:48;16.50;;;14.77;;
19883;SDS011;10104;50.732;10.174;2023-05-07T03:57:10;15.53;;;14.03;;
19883;SDS011;10104;50.732;10.174;2023-05-07T03:59:31;16.37;;;14.77;;
19883;SDS011;10104;50.732;10.174;2023-05-07T04:01:52;16.13;;;14.60;;
19883;SDS011;10104;50.732;10.174;2023-05-07T04:04:14;14.63;;;13.33;;
19883;SDS011;10104;50.732;10.174;2023-05-07T04:06:37;13.97;;;12.57;;
19883;SDS011;10104;50.732;10.174;2023-05-07T04:08:58;15.30;;;13.60;;
19883;SDS011;10104;50.732;10.174;2023-05-07T04:11:20;14.83;;;12.67;;
19883;SDS011;10104;50.732;10.174;2023-05-07T04:13:41;13.43;;;12.13;;
19883;SDS011;10104;50.732;10.174;2023-05-07T04:16:03;14.00;;;12.50;;
19883;SDS011;10104;50.732;10.174;2023-05-07T04:18:26;13.97;;;12.57;;
19883;SDS011;10104;50.732;10.174;2023-05-07T04:20:48;14.07;;;12.53;;
19883;SDS011;10104;50.732;10.174;2023-05-07T04:23:10;12.97;;;11.80;;
19883;SDS011;10104;50.732;10.174;2023-05-07T04:25:32;13.97;;;12.60;;
19883;SDS011;10104;50.732;10.174;2023-05-07T04:27:54;13.63;;;12.33;;
19883;SDS011;10104;50.732;10.174;2023-05-07T04:30:18;13.10;;;11.87;;
19883;SDS011;10104;50.732;10.174;2023-05-07T04:32:39;13.37;;;11.97;;
19883;SDS011;10104;50.732;10.174;2023-05-07T04:35:01;13.37;;;11.97;;
19883;SDS011;10104;50.732;10.174;2023-05-07T04:37:23;13.63;;;12.33;;
19883;SDS011;10104;50.732;10.174;2023-05-07T04:39:44;13.90;;;12.50;;
19883;SDS011;10104;50.732;10.174;2023-05-07T04:42:06;12.77;;;11.57;;
19883;SDS011;10104;50.732;10.174;2023-05-07T04:44:29;13.32;;;11.82;;
19883;SDS011;10104;50.732;10.174;2023-05-07T04:46:52;13.60;;;12.40;;
19883;SDS011;10104;50.732;10.174;2023-05-07T04:49:13;14.37;;;12.97;;
19883;SDS011;10104;50.732;10.174;2023-05-07T04:51:35;13.43;;;12.05;;
19883;SDS011;10104;50.732;10.174;2023-05-07T04:53:56;13.23;;;11.90;;
19883;SDS011;10104;50.732;10.174;2023-05-07T04:56:18;16.40;;;12.15;;
19883;SDS011;10104;50.732;10.174;2023-05-07T04:58:39;12.70;;;11.50;;
19883;SDS011;10104;50.732;10.174;2023-05-07T05:01:01;12.63;;;11.00;;
19883;SDS011;10104;50.732;10.174;2023-05-07T05:03:22;13.10;;;11.80;;
19883;SDS011;10104;50.732;10.174;2023-05-07T05:05:44;13.75;;;12.35;;
19883;SDS011;10104;50.732;10.174;2023-05-07T05:08:06;13.02;;;11.82;;
19883;SDS011;10104;50.732;10.174;2023-05-07T05:10:27;13.32;;;12.07;;
19883;SDS011;10104;50.732;10.174;2023-05-07T05:12:49;14.15;;;12.65;;
19883;SDS011;10104;50.732;10.174;2023-05-07T05:15:11;14.68;;;13.23;;
19883;SDS011;10104;50.732;10.174;2023-05-07T05:17:33;14.07;;;12.57;;
19883;SDS011;10104;50.732;10.174;2023-05-07T05:19:56;19.98;;;17.30;;
19883;SDS011;10104;50.732;10.174;2023-05-07T05:22:18;19.52;;;17.63;;
19883;SDS011;10104;50.732;10.174;2023-05-07T05:24:39;43.40;;;35.58;;
19883;SDS011;10104;50.732;10.174;2023-05-07T05:27:01;56.22;;;44.33;;
19883;SDS011;10104;50.732;10.174;2023-05-07T05:29:23;44.10;;;37.25;;
19883;SDS011;10104;50.732;10.174;2023-05-07T05:31:44;17.75;;;15.88;;
19883;SDS011;10104;50.732;10.174;2023-05-07T05:34:06;19.92;;;17.83;;
19883;SDS011;10104;50.732;10.174;2023-05-07T05:36:27;17.13;;;15.35;;
19883;SDS011;10104;50.732;10.174;2023-05-07T05:38:49;16.98;;;15.27;;
19883;SDS011;10104;50.732;10.174;2023-05-07T05:41:10;14.77;;;13.27;;
19883;SDS011;10104;50.732;10.174;2023-05-07T05:43:32;14.30;;;12.95;;
19883;SDS011;10104;50.732;10.174;2023-05-07T05:45:55;14.70;;;13.18;;
19883;SDS011;10104;50.732;10.174;2023-05-07T05:48:17;13.00;;;11.70;;
19883;SDS011;10104;50.732;10.174;2023-05-07T05:50:38;16.52;;;12.98;;
19883;SDS011;10104;50.732;10.174;2023-05-07T05:53:00;13.60;;;12.25;;
19883;SDS011;10104;50.732;10.174;2023-05-07T05:55:21;14.50;;;12.05;;
19883;SDS011;10104;50.732;10.174;2023-05-07T05:57:43;14.55;;;13.15;;
19883;SDS011;10104;50.732;10.174;2023-05-07T06:00:05;14.43;;;12.98;;
19883;SDS011;10104;50.732;10.174;2023-05-07T06:02:27;15.18;;;13.07;;
19883;SDS011;10104;50.732;10.174;2023-05-07T06:04:49;15.75;;;13.65;;
19883;SDS011;10104;50.732;10.174;2023-05-07T06:07:11;14.82;;;12.95;;
19883;SDS011;10104;50.732;10.174;2023-05-07T06:09:32;14.43;;;12.93;;
19883;SDS011;10104;50.732;10.174;2023-05-07T06:11:54;15.45;;;13.05;;
19883;SDS011;10104;50.732;10.174;2023-05-07T06:14:15;14.82;;;13.30;;
19883;SDS011;10104;50.732;10.174;2023-05-07T06:16:37;14.77;;;13.27;;
19883;SDS011;10104;50.732;10.174;2023-05-07T06:18:59;14.65;;;13.18;;
19883;SDS011;10104;50.732;10.174;2023-05-07T06:21:20;14.75;;;12.82;;
19883;SDS011;10104;50.732;10.174;2023-05-07T06:23:42;14.13;;;12.77;;
19883;SDS011;10104;50.732;10.174;2023-05-07T06:26:03;14.73;;;13.05;;
19883;SDS011;10104;50.732;10.174;2023-05-07T06:28:25;13.90;;;12.45;;
19883;SDS011;10104;50.732;10.174;2023-05-07T06:30:46;13.52;;;12.13;;
19883;SDS011;10104;50.732;10.174;2023-05-07T06:33:10;14.57;;;12.38;;
19883;SDS011;10104;50.732;10.174;2023-05-07T06:35:31;14.52;;;13.02;;
19883;SDS011;10104;50.732;10.174;2023-05-07T06:37:53;14.25;;;12.77;;
19883;SDS011;10104;50.732;10.174;2023-05-07T06:40:14;15.70;;;13.00;;
19883;SDS011;10104;50.732;10.174;2023-05-07T06:42:36;15.23;;;13.63;;
19883;SDS011;10104;50.732;10.174;2023-05-07T06:44:59;15.10;;;13.52;;
19883;SDS011;10104;50.732;10.174;2023-05-07T06:47:20;13.88;;;12.48;;
19883;SDS011;10104;50.732;10.174;2023-05-07T06:49:42;15.15;;;13.18;;
19883;SDS011;10104;50.732;10.174;2023-05-07T06:52:03;14.95;;;13.38;;
19883;SDS011;10104;50.732;10.174;2023-05-07T06:54:25;15.68;;;13.85;;
19883;SDS011;10104;50.732;10.174;2023-05-07T06:56:46;16.02;;;12.77;;
19883;SDS011;10104;50.732;10.174;2023-05-07T06:59:08;14.65;;;12.95;;
19883;SDS011;10104;50.732;10.174;2023-05-07T07:01:29;16.13;;;13.57;;
19883;SDS011;10104;50.732;10.174;2023-05-07T07:03:51;17.20;;;13.23;;
19883;SDS011;10104;50.732;10.174;2023-05-07T07:06:13;19.65;;;16.17;;
19883;SDS011;10104;50.732;10.174;2023-05-07T07:08:34;17.23;;;15.43;;
19883;SDS011;10104;50.732;10.174;2023-05-07T07:10:56;15.27;;;13.52;;
19883;SDS011;10104;50.732;10.174;2023-05-07T07:13:17;15.63;;;13.82;;
19883;SDS011;10104;50.732;10.174;2023-05-07T07:15:39;26.27;;;21.40;;
19883;SDS011;10104;50.732;10.174;2023-05-07T07:18:01;20.15;;;17.45;;
19883;SDS011;10104;50.732;10.174;2023-05-07T07:20:22;18.67;;;16.60;;
19883;SDS011;10104;50.732;10.174;2023-05-07T07:22:44;16.42;;;13.15;;
19883;SDS011;10104;50.732;10.174;2023-05-07T07:25:06;13.05;;;11.75;;
19883;SDS011;10104;50.732;10.174;2023-05-07T07:27:27;13.27;;;11.43;;
19883;SDS011;10104;50.732;10.174;2023-05-07T07:29:49;12.63;;;11.23;;
19883;SDS011;10104;50.732;10.174;2023-05-07T07:32:10;12.93;;;11.73;;
19883;SDS011;10104;50.732;10.174;2023-05-07T07:34:32;11.77;;;10.63;;
19883;SDS011;10104;50.732;10.174;2023-05-07T07:36:53;12.10;;;10.82;;
19883;SDS011;10104;50.732;10.174;2023-05-07T07:39:15;12.23;;;10.95;;
19883;SDS011;10104;50.732;10.174;2023-05-07T07:41:36;13.70;;;11.52;;
19883;SDS011;10104;50.732;10.174;2023-05-07T07:43:58;14.05;;;12.55;;
19883;SDS011;10104;50.732;10.174;2023-05-07T07:46:19;12.05;;;10.85;;
19883;SDS011;10104;50.732;10.174;2023-05-07T07:48:41;11.75;;;10.55;;
19883;SDS011;10104;50.732;10.174;2023-05-07T07:51:02;13.63;;;10.63;;
19883;SDS011;10104;50.732;10.174;2023-05-07T07:53:24;11.63;;;10.43;;
19883;SDS011;10104;50.732;10.174;2023-05-07T07:55:46;11.35;;;9.93;;
19883;SDS011;10104;50.732;10.174;2023-05-07T07:58:07;11.27;;;10.07;;
19883;SDS011;10104;50.732;10.174;2023-05-07T08:00:29;11.23;;;10.13;;
19883;SDS011;10104;50.732;10.174;2023-05-07T08:02:51;10.80;;;9.52;;
19883;SDS011;10104;50.732;10.174;2023-05-07T08:05:12;12.23;;;10.30;;
19883;SDS011;10104;50.732;10.174;2023-05-07T08:07:34;11.45;;;10.35;;
19883;SDS011;10104;50.732;10.174;2023-05-07T08:09:55;14.02;;;12.63;;
19883;SDS011;10104;50.732;10.174;2023-05-07T08:12:17;11.57;;;9.27;;
19883;SDS011;10104;50.732;10.174;2023-05-07T08:14:38;10.02;;;9.02;;
19883;SDS011;10104;50.732;10.174;2023-05-07T08:17:00;11.05;;;8.90;;
19883;SDS011;10104;50.732;10.174;2023-05-07T08:19:22;10.02;;;9.13;;
19883;SDS011;10104;50.732;10.174;2023-05-07T08:21:43;9.80;;;8.77;;
19883;SDS011;10104;50.732;10.174;2023-05-07T08:24:05;9.57;;;8.55;;
19883;SDS011;10104;50.732;10.174;2023-05-07T08:26:27;9.10;;;8.20;;
19883;SDS011;10104;50.732;10.174;2023-05-07T08:28:48;9.05;;;8.15;;
19883;SDS011;10104;50.732;10.174;2023-05-07T08:31:10;9.60;;;8.60;;
19883;SDS011;10104;50.732;10.174;2023-05-07T08:33:32;9.45;;;7.65;;
19883;SDS011;10104;50.732;10.174;2023-05-07T08:35:53;8.80;;;7.43;;
19883;SDS011;10104;50.732;10.174;2023-05-07T08:38:14;8.35;;;7.55;;
19883;SDS011;10104;50.732;10.174;2023-05-07T08:40:37;9.05;;;8.15;;
19883;SDS011;10104;50.732;10.174;2023-05-07T08:43:00;8.68;;;7.90;;
19883;SDS011;10104;50.732;10.174;2023-05-07T08:45:23;8.93;;;8.07;;
19883;SDS011;10104;50.732;10.174;2023-05-07T08:47:46;8.80;;;7.90;;
19883;SDS011;10104;50.732;10.174;2023-05-07T08:50:13;9.40;;;7.75;;
19883;SDS011;10104;50.732;10.174;2023-05-07T08:52:34;7.93;;;7.20;;
19883;SDS011;10104;50.732;10.174;2023-05-07T08:54:56;7.93;;;7.13;;
19883;SDS011;10104;50.732;10.174;2023-05-07T08:57:17;7.38;;;6.68;;
19883;SDS011;10104;50.732;10.174;2023-05-07T08:59:41;7.93;;;7.15;;
19883;SDS011;10104;50.732;10.174;2023-05-07T09:02:03;7.75;;;6.95;;
19883;SDS011;10104;50.732;10.174;2023-05-07T09:04:28;9.15;;;6.68;;
19883;SDS011;10104;50.732;10.174;2023-05-07T09:06:49;7.68;;;6.93;;
19883;SDS011;10104;50.732;10.174;2023-05-07T09:09:13;8.60;;;7.63;;
19883;SDS011;10104;50.732;10.174;2023-05-07T09:11:38;8.55;;;7.30;;
19883;SDS011;10104;50.732;10.174;2023-05-07T09:14:00;8.48;;;7.68;;
19883;SDS011;10104;50.732;10.174;2023-05-07T09:16:25;8.35;;;7.55;;
19883;SDS011;10104;50.732;10.174;2023-05-07T09:18:48;11.00;;;7.28;;
19883;SDS011;10104;50.732;10.174;2023-05-07T09:21:17;9.63;;;7.68;;
19883;SDS011;10104;50.732;10.174;2023-05-07T09:23:39;8.38;;;7.57;;
19883;SDS011;10104;50.732;10.174;2023-05-07T09:26:01;7.95;;;7.25;;
19883;SDS011;10104;50.732;10.174;2023-05-07T09:28:23;9.25;;;8.35;;
19883;SDS011;10104;50.732;10.174;2023-05-07T09:30:44;8.93;;;8.00;;
19883;SDS011;10104;50.732;10.174;2023-05-07T09:33:06;8.18;;;7.38;;
19883;SDS011;10104;50.732;10.174;2023-05-07T09:35:28;7.85;;;7.13;;
19883;SDS011;10104;50.732;10.174;2023-05-07T09:37:50;7.85;;;7.00;;
19883;SDS011;10104;50.732;10.174;2023-05-07T09:40:24;7.40;;;6.80;;
19883;SDS011;10104;50.732;10.174;2023-05-07T09:42:50;8.15;;;7.35;;
19883;SDS011;10104;50.732;10.174;2023-05-07T09:45:12;7.40;;;6.70;;
19883;SDS011;10104;50.732;10.174;2023-05-07T09:47:34;8.05;;;7.35;;
19883;SDS011;10104;50.732;10.174;2023-05-07T09:50:00;6.63;;;6.03;;
19883;SDS011;10104;50.732;10.174;2023-05-07T09:52:26;7.50;;;6.80;;
19883;SDS011;10104;50.732;10.174;2023-05-07T09:54:54;7.68;;;6.80;;
19883;SDS011;10104;50.732;10.174;2023-05-07T09:57:17;7.13;;;6.40;;
19883;SDS011;10104;50.732;10.174;2023-05-07T09:59:42;8.00;;;7.20;;
19883;SDS011;10104;50.732;10.174;2023-05-07T10:02:04;7.30;;;6.60;;
19883;SDS011;10104;50.732;10.174;2023-05-07T10:04:27;7.68;;;6.97;;
19883;SDS011;10104;50.732;10.174;2023-05-07T10:06:49;7.65;;;6.85;;
19883;SDS011;10104;50.732;10.174;2023-05-07T10:09:11;7.47;;;6.78;;
19883;SDS011;10104;50.732;10.174;2023-05-07T10:11:35;6.97;;;6.35;;
19883;SDS011;10104;50.732;10.174;2023-05-07T10:13:56;7.15;;;6.45;;
19883;SDS011;10104;50.732;10.174;2023-05-07T10:16:18;6.70;;;6.10;;
19883;SDS011;10104;50.732;10.174;2023-05-07T10:18:40;6.80;;;6.18;;
19883;SDS011;10104;50.732;10.174;2023-05-07T10:23:37;6.65;;;6.05;;
19883;SDS011;10104;50.732;10.174;2023-05-07T10:26:01;7.22;;;6.05;;
19883;SDS011;10104;50.732;10.174;2023-05-07T10:28:25;6.70;;;6.00;;
19883;SDS011;10104;50.732;10.174;2023-05-07T10:30:52;6.28;;;5.68;;
19883;SDS011;10104;50.732;10.174;2023-05-07T10:33:24;6.22;;;5.50;;
19883;SDS011;10104;50.732;10.174;2023-05-07T10:35:48;7.53;;;6.70;;
19883;SDS011;10104;50.732;10.174;2023-05-07T10:38:10;6.03;;;5.45;;
19883;SDS011;10104;50.732;10.174;2023-05-07T10:40:32;6.47;;;5.88;;
19883;SDS011;10104;50.732;10.174;2023-05-07T10:42:58;6.47;;;5.80;;
19883;SDS011;10104;50.732;10.174;2023-05-07T10:45:21;6.53;;;5.80;;
19883;SDS011;10104;50.732;10.174;2023-05-07T10:50:49;5.65;;;5.15;;
19883;SDS011;10104;50.732;10.174;2023-05-07T10:53:41;5.30;;;4.80;;
19883;SDS011;10104;50.732;10.174;2023-05-07T10:56:23;5.40;;;4.90;;
19883;SDS011;10104;50.732;10.174;2023-05-07T10:58:46;5.50;;;5.00;;
19883;SDS011;10104;50.732;10.174;2023-05-07T11:01:07;6.47;;;5.50;;
19883;SDS011;10104;50.732;10.174;2023-05-07T11:03:29;6.05;;;4.78;;
19883;SDS011;10104;50.732;10.174;2023-05-07T11:08:54;6.47;;;5.32;;
19883;SDS011;10104;50.732;10.174;2023-05-07T11:11:17;5.40;;;4.90;;
19883;SDS011;10104;50.732;10.174;2023-05-07T11:13:45;5.18;;;4.68;;
19883;SDS011;10104;50.732;10.174;2023-05-07T11:16:21;5.13;;;4.63;;
19883;SDS011;10104;50.732;10.174;2023-05-07T11:18:52;6.45;;;4.63;;
19883;SDS011;10104;50.732;10.174;2023-05-07T11:24:08;5.15;;;4.65;;
19883;SDS011;10104;50.732;10.174;2023-05-07T11:26:41;5.50;;;5.00;;
19883;SDS011;10104;50.732;10.174;2023-05-07T11:29:10;4.43;;;4.03;;
19883;SDS011;10104;50.732;10.174;2023-05-07T11:31:43;5.30;;;4.80;;
19883;SDS011;10104;50.732;10.174;2023-05-07T11:34:04;5.55;;;5.03;;
19883;SDS011;10104;50.732;10.174;2023-05-07T11:36:30;4.88;;;4.38;;
19883;SDS011;10104;50.732;10.174;2023-05-07T11:38:53;6.15;;;4.60;;
19883;SDS011;10104;50.732;10.174;2023-05-07T11:41:15;8.75;;;4.45;;
19883;SDS011;10104;50.732;10.174;2023-05-07T11:43:37;5.90;;;4.55;;
19883;SDS011;10104;50.732;10.174;2023-05-07T11:46:11;4.97;;;4.47;;
19883;SDS011;10104;50.732;10.174;2023-05-07T11:48:33;5.85;;;4.50;;
19883;SDS011;10104;50.732;10.174;2023-05-07T11:53:20;4.53;;;4.07;;
19883;SDS011;10104;50.732;10.174;2023-05-07T11:55:45;4.57;;;3.92;;
19883;SDS011;10104;50.732;10.174;2023-05-07T11:58:09;4.22;;;3.85;;
19883;SDS011;10104;50.732;10.174;2023-05-07T12:00:32;4.82;;;4.25;;
19883;SDS011;10104;50.732;10.174;2023-05-07T12:02:53;4.57;;;3.97;;
19883;SDS011;10104;50.732;10.174;2023-05-07T12:05:15;4.38;;;3.97;;
19883;SDS011;10104;50.732;10.174;2023-05-07T12:07:37;5.65;;;4.03;;
19883;SDS011;10104;50.732;10.174;2023-05-07T12:09:59;5.30;;;4.80;;
19883;SDS011;10104;50.732;10.174;2023-05-07T12:12:20;5.00;;;4.45;;
19883;SDS011;10104;50.732;10.174;2023-05-07T12:14:42;4.75;;;4.25;;
19883;SDS011;10104;50.732;10.174;2023-05-07T12:17:05;5.50;;;5.00;;
19883;SDS011;10104;50.732;10.174;2023-05-07T12:19:29;5.13;;;4.72;;
19883;SDS011;10104;50.732;10.174;2023-05-07T12:21:51;5.18;;;4.68;;
19883;SDS011;10104;50.732;10.174;2023-05-07T12:24:14;5.95;;;4.88;;
19883;SDS011;10104;50.732;10.174;2023-05-07T12:26:39;4.78;;;4.28;;
19883;SDS011;10104;50.732;10.174;2023-05-07T12:29:01;6.07;;;4.80;;
19883;SDS011;10104;50.732;10.174;2023-05-07T12:31:26;4.60;;;4.20;;
19883;SDS011;10104;50.732;10.174;2023-05-07T12:33:48;5.10;;;4.70;;
19883;SDS011;10104;50.732;10.174;2023-05-07T12:36:11;5.05;;;4.55;;
19883;SDS011;10104;50.732;10.174;2023-05-07T12:38:35;4.85;;;4.30;;
19883;SDS011;10104;50.732;10.174;2023-05-07T12:40:58;4.47;;;4.07;;
19883;SDS011;10104;50.732;10.174;2023-05-07T12:43:29;4.72;;;4.22;;
19883;SDS011;10104;50.732;10.174;2023-05-07T12:45:51;5.35;;;4.85;;
19883;SDS011;10104;50.732;10.174;2023-05-07T12:48:14;4.63;;;4.22;;
19883;SDS011;10104;50.732;10.174;2023-05-07T12:50:36;5.75;;;5.05;;
19883;SDS011;10104;50.732;10.174;2023-05-07T12:52:58;5.38;;;4.40;;
19883;SDS011;10104;50.732;10.174;2023-05-07T12:55:20;5.78;;;5.15;;
19883;SDS011;10104;50.732;10.174;2023-05-07T12:57:42;6.05;;;5.20;;
19883;SDS011;10104;50.732;10.174;2023-05-07T13:00:09;6.38;;;5.78;;
19883;SDS011;10104;50.732;10.174;2023-05-07T13:02:34;5.78;;;5.25;;
19883;SDS011;10104;50.732;10.174;2023-05-07T13:04:59;7.80;;;5.88;;
19883;SDS011;10104;50.732;10.174;2023-05-07T13:07:20;6.15;;;5.35;;
19883;SDS011;10104;50.732;10.174;2023-05-07T13:09:46;6.40;;;4.93;;
19883;SDS011;10104;50.732;10.174;2023-05-07T13:12:09;5.80;;;5.30;;
19883;SDS011;10104;50.732;10.174;2023-05-07T13:14:31;5.35;;;4.85;;
19883;SDS011;10104;50.732;10.174;2023-05-07T13:16:52;5.45;;;4.68;;
19883;SDS011;10104;50.732;10.174;2023-05-07T13:19:14;4.45;;;4.05;;
19883;SDS011;10104;50.732;10.174;2023-05-07T13:21:35;5.35;;;4.70;;
19883;SDS011;10104;50.732;10.174;2023-05-07T13:23:58;5.07;;;4.55;;
19883;SDS011;10104;50.732;10.174;2023-05-07T13:26:20;4.43;;;3.90;;
19883;SDS011;10104;50.732;10.174;2023-05-07T13:28:47;4.80;;;4.40;;
19883;SDS011;10104;50.732;10.174;2023-05-07T13:31:09;4.78;;;4.38;;
19883;SDS011;10104;50.732;10.174;2023-05-07T13:33:31;5.65;;;4.35;;
19883;SDS011;10104;50.732;10.174;2023-05-07T13:35:52;5.28;;;4.38;;
19883;SDS011;10104;50.732;10.174;2023-05-07T13:38:14;5.18;;;4.47;;
19883;SDS011;10104;50.732;10.174;2023-05-07T13:40:37;5.18;;;4.78;;
19883;SDS011;10104;50.732;10.174;2023-05-07T13:42:58;4.50;;;4.10;;
19883;SDS011;10104;50.732;10.174;2023-05-07T13:45:22;4.55;;;4.07;;
19883;SDS011;10104;50.732;10.174;2023-05-07T13:47:46;6.80;;;4.43;;
19883;SDS011;10104;50.732;10.174;2023-05-07T13:50:10;5.20;;;4.38;;
19883;SDS011;10104;50.732;10.174;2023-05-07T13:52:33;5.22;;;3.90;;
19883;SDS011;10104;50.732;10.174;2023-05-07T13:54:54;4.35;;;4.05;;
19883;SDS011;10104;50.732;10.174;2023-05-07T13:57:17;4.38;;;4.00;;
19883;SDS011;10104;50.732;10.174;2023-05-07T13:59:40;3.90;;;3.60;;
19883;SDS011;10104;50.732;10.174;2023-05-07T14:02:02;4.07;;;3.67;;
19883;SDS011;10104;50.732;10.174;2023-05-07T14:04:23;4.30;;;3.90;;
19883;SDS011;10104;50.732;10.174;2023-05-07T14:06:45;5.18;;;4.03;;
19883;SDS011;10104;50.732;10.174;2023-05-07T14:09:06;3.92;;;3.60;;